EZY234 EGAC-EGGD
Flight info
| Callsign | EZY234 |
|---|---|
| Flight time | 0h 51m |
| Altitude | 31000 |
| Route | DUFFY L10 RINGA Q39 BABGU DCT ETIGA DCT INKOB Q39 NOMSU UQ4 WAL N862 KARNO/N0439F300 DCT ALHUP DCT LUCSA/N0397F230 N862 WEVBE |
| Aircraft | A320/M-SDE3FGHIRWY/LB1 |
Departure
| Time | 2026-05-06 16:48 |
|---|---|
| Airport | George Best Belfast City Airport (EGAC) |
Arrival
| Time | 2026-05-06 17:39 |
|---|---|
| Airport | Bristol Airport (EGGD) |
| Time | Latitude | Longitude | Altitude | Speed | Heading |
|---|---|---|---|---|---|
| 2026-05-06 16:18 | 54.61561 | -5.87100 | 21 ft | 0 kts | 158° |
| 2026-05-06 16:39 | 54.61581 | -5.87113 | 22 ft | 4 kts | 158° |
| 2026-05-06 16:39 | 54.61597 | -5.87124 | 22 ft | 1 kts | 158° |
| 2026-05-06 16:39 | 54.61599 | -5.87125 | 22 ft | 0 kts | 158° |
| 2026-05-06 16:42 | 54.61599 | -5.87124 | 22 ft | 0 kts | 149° |
| 2026-05-06 16:42 | 54.61603 | -5.87108 | 23 ft | 2 kts | 53° |
| 2026-05-06 16:43 | 54.61624 | -5.87098 | 21 ft | 7 kts | 20° |
| 2026-05-06 16:43 | 54.61671 | -5.87057 | 21 ft | 7 kts | 32° |
| 2026-05-06 16:43 | 54.61710 | -5.87013 | 21 ft | 6 kts | 33° |
| 2026-05-06 16:43 | 54.61746 | -5.86995 | 21 ft | 5 kts | 356° |
| 2026-05-06 16:44 | 54.61771 | -5.87020 | 22 ft | 4 kts | 314° |
| 2026-05-06 16:44 | 54.61831 | -5.87160 | 21 ft | 17 kts | 320° |
| 2026-05-06 16:44 | 54.61934 | -5.87101 | 20 ft | 23 kts | 34° |
| 2026-05-06 16:44 | 54.62080 | -5.86928 | 20 ft | 26 kts | 35° |
| 2026-05-06 16:45 | 54.62235 | -5.86742 | 22 ft | 27 kts | 34° |
| 2026-05-06 16:45 | 54.62385 | -5.86564 | 22 ft | 22 kts | 39° |
| 2026-05-06 16:45 | 54.62467 | -5.86436 | 21 ft | 13 kts | 339° |
| 2026-05-06 16:45 | 54.62462 | -5.86532 | 22 ft | 9 kts | 202° |
| 2026-05-06 16:46 | 54.62401 | -5.86550 | 24 ft | 9 kts | 206° |
| 2026-05-06 16:46 | 54.62384 | -5.86568 | 22 ft | 0 kts | 213° |
| 2026-05-06 16:47 | 54.62362 | -5.86594 | 22 ft | 22 kts | 214° |
| 2026-05-06 16:48 | 54.61970 | -5.87060 | 20 ft | 111 kts | 214° |
| 2026-05-06 16:48 | 54.61179 | -5.88025 | 290 ft | 148 kts | 211° |
| 2026-05-06 16:48 | 54.60337 | -5.89062 | 1060 ft | 157 kts | 211° |
| 2026-05-06 16:48 | 54.59370 | -5.90200 | 1457 ft | 180 kts | 210° |
| 2026-05-06 16:49 | 54.58185 | -5.91108 | 1839 ft | 197 kts | 180° |
| 2026-05-06 16:49 | 54.56793 | -5.90568 | 2269 ft | 219 kts | 159° |
| 2026-05-06 16:49 | 54.55324 | -5.89456 | 2820 ft | 239 kts | 156° |
| 2026-05-06 16:49 | 54.53798 | -5.88187 | 2979 ft | 245 kts | 156° |
| 2026-05-06 16:50 | 54.52270 | -5.86888 | 3006 ft | 246 kts | 153° |
| 2026-05-06 16:50 | 54.51337 | -5.85664 | 3209 ft | 257 kts | 134° |
| 2026-05-06 16:50 | 54.50316 | -5.83122 | 4196 ft | 259 kts | 126° |
| 2026-05-06 16:50 | 54.49316 | -5.80549 | 5113 ft | 265 kts | 126° |
| 2026-05-06 16:51 | 54.48248 | -5.77886 | 5998 ft | 270 kts | 127° |
| 2026-05-06 16:51 | 54.47180 | -5.75252 | 6822 ft | 274 kts | 126° |
| 2026-05-06 16:51 | 54.46062 | -5.72495 | 7642 ft | 280 kts | 127° |
| 2026-05-06 16:51 | 54.44933 | -5.69711 | 8425 ft | 287 kts | 127° |
| 2026-05-06 16:52 | 54.43801 | -5.66911 | 9264 ft | 291 kts | 127° |
| 2026-05-06 16:52 | 54.42623 | -5.63996 | 10094 ft | 296 kts | 127° |
| 2026-05-06 16:52 | 54.41456 | -5.61101 | 10842 ft | 300 kts | 127° |
| 2026-05-06 16:52 | 54.40252 | -5.58110 | 11391 ft | 314 kts | 127° |
| 2026-05-06 16:53 | 54.38961 | -5.54921 | 11623 ft | 337 kts | 127° |
| 2026-05-06 16:53 | 54.37561 | -5.51475 | 11944 ft | 355 kts | 127° |
| 2026-05-06 16:53 | 54.36135 | -5.47959 | 12584 ft | 362 kts | 126° |
| 2026-05-06 16:53 | 54.34692 | -5.44399 | 13278 ft | 366 kts | 126° |
| 2026-05-06 16:54 | 54.33227 | -5.40797 | 13962 ft | 371 kts | 127° |
| 2026-05-06 16:54 | 54.31744 | -5.37154 | 14584 ft | 374 kts | 127° |
| 2026-05-06 16:54 | 54.30265 | -5.33525 | 15211 ft | 378 kts | 127° |
| 2026-05-06 16:54 | 54.28733 | -5.29769 | 15838 ft | 382 kts | 127° |
| 2026-05-06 16:55 | 54.27188 | -5.26058 | 16456 ft | 385 kts | 128° |
| 2026-05-06 16:55 | 54.25565 | -5.22468 | 17063 ft | 388 kts | 131° |
| 2026-05-06 16:55 | 54.23847 | -5.18886 | 17677 ft | 391 kts | 132° |
| 2026-05-06 16:55 | 54.22062 | -5.15269 | 18293 ft | 395 kts | 132° |
| 2026-05-06 16:56 | 54.20301 | -5.11720 | 18819 ft | 398 kts | 132° |
| 2026-05-06 16:56 | 54.18506 | -5.08084 | 19359 ft | 402 kts | 132° |
| 2026-05-06 16:56 | 54.16708 | -5.04412 | 19893 ft | 405 kts | 131° |
| 2026-05-06 16:56 | 54.14903 | -5.00700 | 20429 ft | 408 kts | 131° |
| 2026-05-06 16:57 | 54.13088 | -4.96947 | 20954 ft | 411 kts | 130° |
| 2026-05-06 16:57 | 54.11265 | -4.93171 | 21504 ft | 414 kts | 130° |
| 2026-05-06 16:57 | 54.09429 | -4.89370 | 22020 ft | 417 kts | 130° |
| 2026-05-06 16:57 | 54.07574 | -4.85544 | 22522 ft | 420 kts | 130° |
| 2026-05-06 16:58 | 54.05702 | -4.81697 | 23020 ft | 423 kts | 130° |
| 2026-05-06 16:58 | 54.03819 | -4.77825 | 23490 ft | 427 kts | 129° |
| 2026-05-06 16:58 | 54.01973 | -4.73850 | 23900 ft | 430 kts | 128° |
| 2026-05-06 16:58 | 54.00163 | -4.69785 | 24276 ft | 433 kts | 127° |
| 2026-05-06 16:59 | 53.98367 | -4.65667 | 24648 ft | 435 kts | 127° |
| 2026-05-06 16:59 | 53.96561 | -4.61523 | 25014 ft | 438 kts | 127° |
| 2026-05-06 16:59 | 53.94736 | -4.57363 | 25373 ft | 440 kts | 127° |
| 2026-05-06 16:59 | 53.92888 | -4.53197 | 25728 ft | 443 kts | 127° |
| 2026-05-06 17:00 | 53.91023 | -4.49029 | 26059 ft | 445 kts | 127° |
| 2026-05-06 17:00 | 53.89138 | -4.44848 | 26438 ft | 447 kts | 127° |
| 2026-05-06 17:00 | 53.87244 | -4.40659 | 26801 ft | 448 kts | 127° |
| 2026-05-06 17:00 | 53.85381 | -4.36408 | 27128 ft | 450 kts | 125° |
| 2026-05-06 17:01 | 53.83571 | -4.32058 | 27465 ft | 452 kts | 124° |
| 2026-05-06 17:01 | 53.81799 | -4.27656 | 27795 ft | 454 kts | 123° |
| 2026-05-06 17:01 | 53.80029 | -4.23206 | 28116 ft | 456 kts | 123° |
| 2026-05-06 17:01 | 53.78248 | -4.18748 | 28425 ft | 459 kts | 123° |
| 2026-05-06 17:02 | 53.76446 | -4.14291 | 28727 ft | 461 kts | 123° |
| 2026-05-06 17:02 | 53.74617 | -4.09825 | 28970 ft | 462 kts | 124° |
| 2026-05-06 17:02 | 53.72776 | -4.05372 | 29027 ft | 463 kts | 124° |
| 2026-05-06 17:03 | 53.69092 | -3.96508 | 29019 ft | 455 kts | 124° |
| 2026-05-06 17:03 | 53.65482 | -3.87832 | 29021 ft | 449 kts | 124° |
| 2026-05-06 17:04 | 53.61895 | -3.79235 | 29020 ft | 448 kts | 124° |
| 2026-05-06 17:04 | 53.58301 | -3.70651 | 29019 ft | 448 kts | 124° |
| 2026-05-06 17:05 | 53.54702 | -3.62073 | 29024 ft | 448 kts | 124° |
| 2026-05-06 17:05 | 53.51103 | -3.53523 | 29018 ft | 448 kts | 124° |
| 2026-05-06 17:06 | 53.47519 | -3.44953 | 29017 ft | 448 kts | 121° |
| 2026-05-06 17:06 | 53.44842 | -3.35554 | 29012 ft | 446 kts | 112° |
| 2026-05-06 17:07 | 53.42405 | -3.25986 | 29007 ft | 447 kts | 112° |
| 2026-05-06 17:07 | 53.39341 | -3.16963 | 29009 ft | 448 kts | 129° |
| 2026-05-06 17:08 | 53.34694 | -3.10068 | 29007 ft | 448 kts | 149° |
| 2026-05-06 17:08 | 53.29132 | -3.05396 | 29022 ft | 447 kts | 155° |
| 2026-05-06 17:09 | 53.23518 | -3.00910 | 29021 ft | 447 kts | 155° |
| 2026-05-06 17:09 | 53.17909 | -2.96420 | 29020 ft | 447 kts | 155° |
| 2026-05-06 17:10 | 53.12302 | -2.91952 | 29028 ft | 446 kts | 156° |
| 2026-05-06 17:10 | 53.06401 | -2.88993 | 29026 ft | 443 kts | 174° |
| 2026-05-06 17:11 | 53.00274 | -2.88830 | 29023 ft | 440 kts | 184° |
| 2026-05-06 17:11 | 52.94160 | -2.89339 | 29017 ft | 440 kts | 185° |
| 2026-05-06 17:12 | 52.88075 | -2.90131 | 29019 ft | 437 kts | 191° |
| 2026-05-06 17:12 | 52.82071 | -2.91595 | 29027 ft | 436 kts | 190° |
| 2026-05-06 17:13 | 52.76064 | -2.93001 | 28266 ft | 436 kts | 190° |
| 2026-05-06 17:13 | 52.73079 | -2.93690 | 27675 ft | 430 kts | 190° |
| 2026-05-06 17:13 | 52.70117 | -2.94211 | 27079 ft | 427 kts | 185° |
| 2026-05-06 17:13 | 52.67165 | -2.94445 | 26488 ft | 423 kts | 185° |
| 2026-05-06 17:14 | 52.64244 | -2.94681 | 25906 ft | 419 kts | 185° |
| 2026-05-06 17:14 | 52.61342 | -2.94922 | 25325 ft | 415 kts | 185° |
| 2026-05-06 17:14 | 52.58505 | -2.95159 | 24761 ft | 412 kts | 185° |
| 2026-05-06 17:14 | 52.55654 | -2.95400 | 24204 ft | 409 kts | 185° |
| 2026-05-06 17:15 | 52.52816 | -2.95639 | 23658 ft | 407 kts | 185° |
| 2026-05-06 17:15 | 52.49998 | -2.95877 | 23067 ft | 404 kts | 185° |
| 2026-05-06 17:15 | 52.47210 | -2.96112 | 22571 ft | 398 kts | 185° |
| 2026-05-06 17:15 | 52.44458 | -2.96338 | 22096 ft | 394 kts | 185° |
| 2026-05-06 17:16 | 52.41732 | -2.96558 | 21627 ft | 390 kts | 185° |
| 2026-05-06 17:16 | 52.39043 | -2.96771 | 21185 ft | 385 kts | 185° |
| 2026-05-06 17:16 | 52.36378 | -2.96983 | 20727 ft | 382 kts | 185° |
| 2026-05-06 17:16 | 52.33735 | -2.97198 | 20255 ft | 379 kts | 185° |
| 2026-05-06 17:17 | 52.31118 | -2.97501 | 19793 ft | 374 kts | 190° |
| 2026-05-06 17:17 | 52.28600 | -2.98458 | 19325 ft | 370 kts | 200° |
| 2026-05-06 17:17 | 52.26255 | -3.00114 | 18863 ft | 365 kts | 209° |
| 2026-05-06 17:17 | 52.24008 | -3.02012 | 18380 ft | 364 kts | 209° |
| 2026-05-06 17:18 | 52.21760 | -3.03888 | 17864 ft | 362 kts | 208° |
| 2026-05-06 17:18 | 52.19523 | -3.05737 | 17377 ft | 359 kts | 208° |
| 2026-05-06 17:18 | 52.17302 | -3.07563 | 16905 ft | 356 kts | 208° |
| 2026-05-06 17:18 | 52.15097 | -3.09376 | 16428 ft | 354 kts | 208° |
| 2026-05-06 17:19 | 52.12902 | -3.11184 | 15943 ft | 352 kts | 208° |
| 2026-05-06 17:19 | 52.10710 | -3.12994 | 15718 ft | 356 kts | 208° |
| 2026-05-06 17:19 | 52.08498 | -3.14819 | 15357 ft | 356 kts | 208° |
| 2026-05-06 17:19 | 52.06296 | -3.16637 | 14976 ft | 355 kts | 208° |
| 2026-05-06 17:20 | 52.04041 | -3.18242 | 14557 ft | 354 kts | 199° |
| 2026-05-06 17:20 | 52.01643 | -3.19138 | 14145 ft | 354 kts | 190° |
| 2026-05-06 17:20 | 51.99214 | -3.19723 | 13671 ft | 352 kts | 189° |
| 2026-05-06 17:20 | 51.96799 | -3.20313 | 13137 ft | 350 kts | 189° |
| 2026-05-06 17:21 | 51.94398 | -3.20907 | 12602 ft | 348 kts | 190° |
| 2026-05-06 17:21 | 51.92016 | -3.21496 | 12091 ft | 345 kts | 189° |
| 2026-05-06 17:21 | 51.89647 | -3.22084 | 11580 ft | 343 kts | 189° |
| 2026-05-06 17:21 | 51.87301 | -3.22668 | 11081 ft | 341 kts | 189° |
| 2026-05-06 17:22 | 51.84964 | -3.23248 | 10585 ft | 338 kts | 189° |
| 2026-05-06 17:22 | 51.82649 | -3.23819 | 10098 ft | 336 kts | 189° |
| 2026-05-06 17:22 | 51.80361 | -3.24382 | 9569 ft | 327 kts | 189° |
| 2026-05-06 17:22 | 51.78143 | -3.24927 | 9057 ft | 318 kts | 189° |
| 2026-05-06 17:23 | 51.76018 | -3.25428 | 8889 ft | 298 kts | 186° |
| 2026-05-06 17:23 | 51.73992 | -3.25328 | 8758 ft | 289 kts | 171° |
| 2026-05-06 17:23 | 51.72076 | -3.24402 | 8627 ft | 288 kts | 155° |
| 2026-05-06 17:23 | 51.70376 | -3.22728 | 8498 ft | 288 kts | 141° |
| 2026-05-06 17:24 | 51.68925 | -3.20503 | 8367 ft | 287 kts | 135° |
| 2026-05-06 17:24 | 51.67509 | -3.18231 | 8158 ft | 287 kts | 135° |
| 2026-05-06 17:24 | 51.66100 | -3.15984 | 7825 ft | 284 kts | 135° |
| 2026-05-06 17:24 | 51.64705 | -3.13761 | 7490 ft | 280 kts | 135° |
| 2026-05-06 17:25 | 51.63319 | -3.11559 | 7165 ft | 280 kts | 135° |
| 2026-05-06 17:25 | 51.61932 | -3.09356 | 6839 ft | 280 kts | 135° |
| 2026-05-06 17:25 | 51.60570 | -3.07190 | 6519 ft | 278 kts | 135° |
| 2026-05-06 17:25 | 51.59206 | -3.05020 | 6103 ft | 276 kts | 135° |
| 2026-05-06 17:26 | 51.57844 | -3.02853 | 5682 ft | 274 kts | 135° |
| 2026-05-06 17:26 | 51.56497 | -3.00711 | 5267 ft | 271 kts | 135° |
| 2026-05-06 17:26 | 51.55165 | -2.98598 | 5037 ft | 268 kts | 135° |
| 2026-05-06 17:26 | 51.53841 | -2.96499 | 5036 ft | 268 kts | 135° |
| 2026-05-06 17:27 | 51.52516 | -2.94398 | 4738 ft | 267 kts | 135° |
| 2026-05-06 17:27 | 51.51194 | -2.92309 | 4445 ft | 265 kts | 134° |
| 2026-05-06 17:27 | 51.49879 | -2.90234 | 4232 ft | 264 kts | 135° |
| 2026-05-06 17:27 | 51.48568 | -2.88170 | 4020 ft | 263 kts | 135° |
| 2026-05-06 17:28 | 51.47264 | -2.86117 | 3811 ft | 263 kts | 134° |
| 2026-05-06 17:28 | 51.45956 | -2.84056 | 3600 ft | 263 kts | 134° |
| 2026-05-06 17:28 | 51.44657 | -2.82009 | 3390 ft | 259 kts | 134° |
| 2026-05-06 17:28 | 51.43395 | -2.80110 | 3180 ft | 239 kts | 143° |
| 2026-05-06 17:29 | 51.41941 | -2.79066 | 2967 ft | 224 kts | 169° |
| 2026-05-06 17:29 | 51.40446 | -2.79120 | 2752 ft | 209 kts | 195° |
| 2026-05-06 17:29 | 51.39157 | -2.80123 | 2578 ft | 205 kts | 220° |
| 2026-05-06 17:29 | 51.38269 | -2.81835 | 2815 ft | 199 kts | 245° |
| 2026-05-06 17:30 | 51.37855 | -2.83949 | 3084 ft | 202 kts | 262° |
| 2026-05-06 17:30 | 51.37704 | -2.86247 | 2645 ft | 210 kts | 266° |
| 2026-05-06 17:30 | 51.37598 | -2.88545 | 2510 ft | 202 kts | 266° |
| 2026-05-06 17:30 | 51.37508 | -2.90787 | 2518 ft | 198 kts | 267° |
| 2026-05-06 17:31 | 51.37429 | -2.92889 | 2528 ft | 181 kts | 267° |
| 2026-05-06 17:31 | 51.37359 | -2.94805 | 2489 ft | 165 kts | 267° |
| 2026-05-06 17:31 | 51.37297 | -2.96573 | 2492 ft | 155 kts | 267° |
| 2026-05-06 17:31 | 51.37239 | -2.98273 | 2493 ft | 152 kts | 267° |
| 2026-05-06 17:32 | 51.37182 | -2.99940 | 2536 ft | 149 kts | 267° |
| 2026-05-06 17:32 | 51.37127 | -3.01585 | 2520 ft | 147 kts | 268° |
| 2026-05-06 17:32 | 51.37037 | -3.03214 | 2504 ft | 147 kts | 255° |
| 2026-05-06 17:32 | 51.36565 | -3.04643 | 2506 ft | 146 kts | 227° |
| 2026-05-06 17:33 | 51.35731 | -3.05546 | 2508 ft | 145 kts | 198° |
| 2026-05-06 17:33 | 51.35065 | -3.05750 | 2505 ft | 144 kts | 179° |
| 2026-05-06 17:33 | 51.34100 | -3.05417 | 2505 ft | 142 kts | 152° |
| 2026-05-06 17:33 | 51.33344 | -3.04425 | 2505 ft | 141 kts | 125° |
| 2026-05-06 17:34 | 51.32955 | -3.03012 | 2506 ft | 139 kts | 98° |
| 2026-05-06 17:34 | 51.33002 | -3.01487 | 2504 ft | 138 kts | 73° |
| 2026-05-06 17:34 | 51.33442 | -3.00147 | 2503 ft | 139 kts | 57° |
| 2026-05-06 17:34 | 51.33966 | -2.98850 | 2507 ft | 139 kts | 57° |
| 2026-05-06 17:35 | 51.34495 | -2.97531 | 2506 ft | 139 kts | 57° |
| 2026-05-06 17:35 | 51.35014 | -2.96230 | 2504 ft | 139 kts | 57° |
| 2026-05-06 17:35 | 51.35532 | -2.94930 | 2507 ft | 139 kts | 57° |
| 2026-05-06 17:36 | 51.36571 | -2.92329 | 2506 ft | 139 kts | 57° |
| 2026-05-06 17:36 | 51.37090 | -2.91025 | 2505 ft | 139 kts | 57° |
| 2026-05-06 17:36 | 51.37498 | -2.89642 | 2489 ft | 139 kts | 82° |
| 2026-05-06 17:36 | 51.37563 | -2.88115 | 2449 ft | 140 kts | 83° |
| 2026-05-06 17:37 | 51.37656 | -2.86550 | 2297 ft | 139 kts | 83° |
| 2026-05-06 17:37 | 51.37732 | -2.85019 | 2125 ft | 138 kts | 83° |
| 2026-05-06 17:37 | 51.37801 | -2.83493 | 1938 ft | 137 kts | 84° |
| 2026-05-06 17:37 | 51.37865 | -2.81983 | 1757 ft | 135 kts | 84° |
| 2026-05-06 17:38 | 51.37927 | -2.80476 | 1569 ft | 136 kts | 85° |
| 2026-05-06 17:38 | 51.37987 | -2.78971 | 1379 ft | 136 kts | 85° |
| 2026-05-06 17:38 | 51.38047 | -2.77475 | 1188 ft | 136 kts | 85° |
| 2026-05-06 17:38 | 51.38107 | -2.75961 | 997 ft | 136 kts | 86° |
| 2026-05-06 17:39 | 51.38167 | -2.74447 | 814 ft | 136 kts | 86° |
| 2026-05-06 17:39 | 51.38226 | -2.72949 | 634 ft | 134 kts | 86° |
| 2026-05-06 17:39 | 51.38265 | -2.71869 | 623 ft | 67 kts | 86° |
| 2026-05-06 17:39 | 51.38284 | -2.71228 | 612 ft | 45 kts | 86° |
| 2026-05-06 17:40 | 51.38308 | -2.70818 | 611 ft | 27 kts | 77° |
| 2026-05-06 17:40 | 51.38373 | -2.70744 | 620 ft | 9 kts | 23° |
| 2026-05-06 17:40 | 51.38424 | -2.70713 | 613 ft | 7 kts | 18° |
| 2026-05-06 17:40 | 51.38463 | -2.70724 | 612 ft | 5 kts | 321° |
| 2026-05-06 17:41 | 51.38471 | -2.70768 | 612 ft | 3 kts | 270° |
| 2026-05-06 17:41 | 51.38470 | -2.70801 | 617 ft | 2 kts | 266° |
| 2026-05-06 17:41 | 51.38465 | -2.70894 | 617 ft | 13 kts | 265° |
| 2026-05-06 17:41 | 51.38461 | -2.71026 | 613 ft | 11 kts | 267° |
| 2026-05-06 17:42 | 51.38457 | -2.71141 | 613 ft | 10 kts | 267° |
| 2026-05-06 17:42 | 51.38452 | -2.71266 | 620 ft | 17 kts | 266° |
| 2026-05-06 17:42 | 51.38445 | -2.71467 | 613 ft | 18 kts | 267° |
| 2026-05-06 17:42 | 51.38483 | -2.71592 | 617 ft | 12 kts | 343° |
| 2026-05-06 17:43 | 51.38539 | -2.71598 | 616 ft | 3 kts | 356° |
| 2026-05-06 17:43 | 51.38544 | -2.71598 | 614 ft | 0 kts | 356° |